Todd, Pennsylvania
Current Conditions -  °F | °C
As of 4:53 PM on Monday 24 Nov 2014 (Local Time) from KAOO Reporting Station
Broken Clouds Broken Clouds  
Wind Chill: 65°   Ceiling: 8500
Heat Index: 65°   Visibility: 10mi
Dew Point: 42°   Wind: 20mph
Humidity: 43%   Direction: 230°SW
Pressure: 29.56"   Gusts: 25mph
Location:  40.26°N, 78.08°W
Report Text: KAOO 242153Z AUTO 23017G22KT 10SM BKN085 18/06 A2956 RMK AO2 PK WND 23033/2108 SLP007 T01830056
Loading
Personal Weather Stations






























Interactive Weather Map New forecast layout! Learn more

10-Day Weather Forecast

Advertisements
Track Severe Weather on mobile